createdAt,value
2023-05-05T00:00:37.271Z,85.54
2023-05-05T00:05:37.193Z,85.13
2023-05-05T00:10:37.132Z,84.92
2023-05-05T00:15:37.047Z,85.27
2023-05-05T00:20:36.994Z,85.99
2023-05-05T00:25:36.928Z,86.40
2023-05-05T00:30:36.860Z,86.85
2023-05-05T00:35:36.805Z,86.95
2023-05-05T00:40:36.734Z,86.65
2023-05-05T00:45:36.659Z,87.10
2023-05-05T00:50:36.622Z,88.27
2023-05-05T00:55:36.554Z,89.91
2023-05-05T01:00:36.471Z,89.23
2023-05-05T01:05:36.397Z,88.92
2023-05-05T01:10:36.337Z,89.34
2023-05-05T01:15:36.268Z,89.89
2023-05-05T01:20:36.255Z,89.69
2023-05-05T01:25:36.141Z,88.72
2023-05-05T01:30:36.072Z,89.58
2023-05-05T01:35:35.994Z,90.09
2023-05-05T01:40:35.937Z,90.45
2023-05-05T01:45:35.941Z,90.66
2023-05-05T01:50:35.804Z,89.89
2023-05-05T01:55:35.746Z,90.00
2023-05-05T02:00:35.676Z,91.58
2023-05-05T02:05:35.600Z,92.50
2023-05-05T02:10:35.538Z,92.86
2023-05-05T02:15:35.502Z,93.37
2023-05-05T02:20:35.418Z,94.09
2023-05-05T02:25:35.348Z,94.96
2023-05-05T02:30:35.302Z,94.85
2023-05-05T02:35:35.218Z,94.55
2023-05-05T02:40:35.153Z,94.45
2023-05-05T02:45:35.112Z,94.03
2023-05-05T02:50:35.056Z,93.21
2023-05-05T02:55:34.972Z,92.59
2023-05-05T03:00:34.910Z,92.03
2023-05-05T03:05:34.830Z,91.52
2023-05-05T03:10:34.774Z,91.21
2023-05-05T03:15:34.699Z,90.45
2023-05-05T03:20:34.629Z,90.86
2023-05-05T03:25:34.563Z,91.78
2023-05-05T03:30:34.496Z,90.75
2023-05-05T03:35:34.422Z,91.27
2023-05-05T03:40:43.715Z,91.27
2023-05-05T03:45:35.340Z,91.47
2023-05-05T03:50:34.226Z,90.92
2023-05-05T03:55:34.213Z,91.33
2023-05-05T04:00:34.206Z,90.51
2023-05-05T04:05:34.114Z,89.54
2023-05-05T04:10:34.063Z,89.23
2023-05-05T04:15:33.972Z,89.19
2023-05-05T04:20:33.891Z,88.53
2023-05-05T04:25:33.814Z,88.80
2023-05-05T04:30:33.771Z,86.40
2023-05-05T04:35:33.703Z,85.74
2023-05-05T04:40:33.647Z,81.56
2023-05-05T04:45:33.562Z,78.55
2023-05-05T04:50:33.525Z,78.92
2023-05-05T04:55:33.421Z,74.25
2023-05-05T05:00:33.364Z,72.17
2023-05-05T05:05:33.308Z,71.30
2023-05-05T05:10:33.231Z,70.38
2023-05-05T05:15:33.261Z,69.59
2023-05-05T05:20:33.106Z,69.97
2023-05-05T05:25:33.101Z,69.93
2023-05-05T05:30:33.093Z,66.22
2023-05-05T05:35:32.910Z,65.78
2023-05-05T05:40:32.838Z,57.43
2023-05-05T05:45:32.746Z,48.28
2023-05-05T05:50:32.704Z,51.49
2023-05-05T05:55:32.652Z,49.38
2023-05-05T06:00:32.573Z,51.21
2023-05-05T06:05:32.495Z,54.71
2023-05-05T06:10:32.771Z,54.21
2023-05-05T06:15:32.383Z,47.56
2023-05-05T06:20:32.288Z,43.59
2023-05-05T06:25:32.239Z,41.63
2023-05-05T06:30:32.180Z,42.03
2023-05-05T06:35:32.113Z,43.93
2023-05-05T06:40:32.031Z,43.25
2023-05-05T06:45:31.968Z,42.37
2023-05-05T06:50:31.903Z,41.12
2023-05-05T06:55:31.837Z,41.00
2023-05-05T07:00:31.813Z,39.45
2023-05-05T07:05:31.694Z,39.63
2023-05-05T07:10:31.655Z,38.73
2023-05-05T07:15:31.596Z,38.12
2023-05-05T07:20:31.532Z,38.40
2023-05-05T07:25:31.489Z,37.39
2023-05-05T07:30:31.444Z,36.90
2023-05-05T07:35:31.344Z,36.23
2023-05-05T07:40:31.264Z,37.41
2023-05-05T07:45:31.172Z,37.29
2023-05-05T07:50:31.112Z,37.29
2023-05-05T07:55:31.043Z,36.18
2023-05-05T08:00:30.979Z,36.77
2023-05-05T08:05:30.915Z,35.31
2023-05-05T08:10:30.852Z,36.90
2023-05-05T08:15:30.789Z,36.15
2023-05-05T08:20:30.738Z,35.24
2023-05-05T08:25:30.663Z,36.24
2023-05-05T08:30:30.632Z,34.46
2023-05-05T08:35:30.549Z,35.67
2023-05-05T08:40:30.485Z,36.66
2023-05-05T08:45:30.410Z,35.69
2023-05-05T08:50:30.349Z,36.22
2023-05-05T08:55:30.314Z,36.20
2023-05-05T09:00:30.238Z,36.00
2023-05-05T09:05:30.163Z,37.16
2023-05-05T09:10:30.187Z,37.48
2023-05-05T09:15:30.019Z,37.96
2023-05-05T09:20:29.969Z,36.52
2023-05-05T09:25:29.897Z,38.61
2023-05-05T09:30:29.835Z,38.89
2023-05-05T09:35:29.762Z,37.35
2023-05-05T09:40:29.697Z,37.75
2023-05-05T09:45:29.632Z,36.79
2023-05-05T09:50:29.578Z,37.67
2023-05-05T09:55:29.514Z,38.50
2023-05-05T10:00:29.432Z,38.48
2023-05-05T10:05:29.391Z,39.90
2023-05-05T10:10:29.309Z,39.00
2023-05-05T10:15:29.238Z,38.70
2023-05-05T10:20:29.184Z,38.70
2023-05-05T10:25:29.105Z,39.20
2023-05-05T10:30:29.063Z,39.70
2023-05-05T10:35:28.962Z,39.50
2023-05-05T10:40:28.898Z,38.31
2023-05-05T10:45:28.924Z,37.19
2023-05-05T10:50:28.782Z,36.79
2023-05-05T10:55:28.710Z,35.77
2023-05-05T11:00:28.627Z,37.05
2023-05-05T11:05:28.555Z,36.07
2023-05-05T11:10:28.513Z,36.93
2023-05-05T11:15:28.473Z,35.56
2023-05-05T11:20:28.373Z,35.16
2023-05-05T11:25:28.294Z,35.74
2023-05-05T11:30:28.228Z,36.16
2023-05-05T11:35:28.157Z,38.53
2023-05-05T11:40:28.094Z,35.54
2023-05-05T11:45:28.026Z,36.32
2023-05-05T11:50:27.981Z,36.32
2023-05-05T11:55:27.888Z,36.02
2023-05-05T12:00:27.836Z,35.24
2023-05-05T12:05:27.762Z,34.84
2023-05-05T12:10:27.719Z,35.66
2023-05-05T12:15:27.661Z,35.14
2023-05-05T12:20:27.577Z,33.63
2023-05-05T12:25:27.521Z,34.23
2023-05-05T12:30:27.449Z,34.50
2023-05-05T12:35:27.376Z,34.10
2023-05-05T12:40:27.323Z,33.92
2023-05-05T12:45:27.256Z,34.53
2023-05-05T12:50:27.172Z,34.61
2023-05-05T12:55:27.112Z,35.49
2023-05-05T13:00:27.051Z,34.40
2023-05-05T13:05:26.983Z,34.91
2023-05-05T13:10:26.928Z,35.61
2023-05-05T13:15:26.841Z,35.29
2023-05-05T13:20:26.780Z,33.81
2023-05-05T13:25:26.733Z,35.52
2023-05-05T13:30:26.663Z,34.01
2023-05-05T13:35:26.596Z,33.62
2023-05-05T13:40:26.525Z,30.76
2023-05-05T13:45:26.469Z,33.25
2023-05-05T13:50:26.396Z,30.27
2023-05-05T13:55:26.319Z,33.05
2023-05-05T14:00:26.263Z,33.75
2023-05-05T14:05:26.455Z,35.05
2023-05-05T14:10:26.136Z,34.61
2023-05-05T14:15:26.097Z,35.19
2023-05-05T14:20:25.996Z,33.90
2023-05-05T14:25:25.993Z,35.01
2023-05-05T14:30:25.865Z,36.21
2023-05-05T14:35:25.803Z,35.22
2023-05-05T14:40:25.745Z,36.82
2023-05-05T14:45:25.689Z,34.43
2023-05-05T14:50:25.666Z,34.43
2023-05-05T14:55:25.542Z,34.73
2023-05-05T15:00:25.489Z,36.00
2023-05-05T15:05:25.414Z,35.33
2023-05-05T15:10:25.342Z,36.64
2023-05-05T15:15:25.287Z,35.86
2023-05-05T15:20:25.209Z,35.08
2023-05-05T15:25:25.134Z,36.77
2023-05-05T15:30:25.085Z,35.56
2023-05-05T15:35:24.997Z,36.16
2023-05-05T15:40:24.949Z,35.88
2023-05-05T15:45:24.875Z,37.65
2023-05-05T15:50:24.876Z,41.33
2023-05-05T15:55:24.797Z,39.25
2023-05-05T16:00:24.676Z,38.86
2023-05-05T16:05:24.622Z,37.87
2023-05-05T16:10:24.529Z,38.18
2023-05-05T16:15:24.477Z,38.78
2023-05-05T16:20:24.391Z,38.60
2023-05-05T16:25:24.330Z,38.80
2023-05-05T16:30:24.346Z,37.42
2023-05-05T16:35:24.215Z,38.02
2023-05-05T16:40:24.215Z,37.94
2023-05-05T16:45:24.125Z,37.76
2023-05-05T16:50:24.173Z,38.16
2023-05-05T16:55:24.014Z,39.06
2023-05-05T17:00:23.915Z,39.67
2023-05-05T17:05:23.821Z,39.98
2023-05-05T17:10:23.909Z,40.00
2023-05-05T17:15:23.665Z,40.89
2023-05-05T17:20:23.601Z,40.80
2023-05-05T17:25:23.719Z,41.99
2023-05-05T17:30:23.465Z,41.61
2023-05-05T17:35:23.400Z,41.99
2023-05-05T17:40:23.350Z,42.82
2023-05-05T17:45:23.263Z,41.52
2023-05-05T17:50:23.253Z,41.91
2023-05-05T17:55:23.217Z,42.93
2023-05-05T18:00:23.123Z,43.13
2023-05-05T18:05:23.080Z,43.93
2023-05-05T18:10:22.983Z,46.66
2023-05-05T18:15:23.180Z,48.08
2023-05-05T18:20:22.920Z,48.61
2023-05-05T18:25:22.955Z,48.91
2023-05-05T18:30:22.749Z,49.04
2023-05-05T18:35:22.744Z,49.74
2023-05-05T18:40:22.636Z,48.73
2023-05-05T18:45:22.582Z,49.23
2023-05-05T18:50:22.491Z,48.93
2023-05-05T18:55:22.380Z,49.33
2023-05-05T19:00:22.410Z,49.63
2023-05-05T19:05:22.666Z,50.16
2023-05-05T19:10:22.266Z,50.18
2023-05-05T19:15:22.137Z,49.96
2023-05-05T19:20:22.107Z,49.86
2023-05-05T19:25:22.094Z,49.86
2023-05-05T19:30:21.889Z,49.36
2023-05-05T19:35:21.820Z,50.09
2023-05-05T19:40:21.763Z,49.78
2023-05-05T19:45:21.675Z,49.18
2023-05-05T19:50:21.660Z,49.58
2023-05-05T19:55:21.591Z,50.29
2023-05-05T20:00:21.488Z,49.78
2023-05-05T20:05:21.465Z,49.28
2023-05-05T20:10:21.366Z,50.41
2023-05-05T20:15:21.358Z,49.58
2023-05-05T20:20:21.324Z,49.80
2023-05-05T20:25:21.158Z,51.06
2023-05-05T20:30:21.114Z,51.89
2023-05-05T20:35:21.009Z,52.09
2023-05-05T20:40:20.983Z,52.92
2023-05-05T20:45:20.908Z,53.83
2023-05-05T20:50:20.869Z,53.52
2023-05-05T20:55:20.779Z,53.72
2023-05-05T21:00:20.728Z,53.00
2023-05-05T21:05:20.640Z,52.72
2023-05-05T21:10:20.567Z,53.75
2023-05-05T21:15:20.483Z,54.91
2023-05-05T21:20:20.445Z,54.48
2023-05-05T21:25:20.365Z,55.51
2023-05-05T21:30:20.311Z,55.39
2023-05-05T21:35:20.239Z,54.86
2023-05-05T21:40:20.198Z,57.03
2023-05-05T21:45:20.112Z,58.29
2023-05-05T21:50:20.088Z,59.53
2023-05-05T21:55:19.947Z,58.92
2023-05-05T22:00:19.902Z,59.22
2023-05-05T22:05:19.819Z,59.33
2023-05-05T22:10:19.756Z,59.83
2023-05-05T22:15:19.684Z,59.42
2023-05-05T22:20:19.617Z,60.24
2023-05-05T22:25:19.560Z,60.94
2023-05-05T22:30:19.470Z,60.77
2023-05-05T22:35:19.414Z,61.68
2023-05-05T22:40:19.618Z,63.15
2023-05-05T22:45:19.771Z,63.55
2023-05-05T22:50:19.204Z,64.67
2023-05-05T22:55:19.166Z,64.67
2023-05-05T23:00:19.107Z,65.67
2023-05-05T23:05:19.053Z,67.83
2023-05-05T23:10:18.949Z,70.66
2023-05-05T23:15:18.931Z,74.74
2023-05-05T23:20:18.820Z,75.68
2023-05-05T23:25:18.772Z,71.84
2023-05-05T23:30:18.677Z,74.27
2023-05-05T23:35:18.633Z,73.90
2023-05-05T23:40:18.553Z,79.16
2023-05-05T23:45:19.442Z,81.43
2023-05-05T23:50:18.418Z,79.03
2023-05-05T23:55:18.344Z,77.75
